createdAt,value
2023-05-22T00:02:38.703Z,17.60
2023-05-22T00:06:44.650Z,17.60
2023-05-22T00:10:47.423Z,17.50
2023-05-22T00:14:50.534Z,17.60
2023-05-22T00:18:55.605Z,17.60
2023-05-22T00:23:01.250Z,17.50
2023-05-22T00:27:04.095Z,17.60
2023-05-22T00:31:06.985Z,17.60
2023-05-22T00:35:10.968Z,17.70
2023-05-22T00:39:15.869Z,17.70
2023-05-22T00:43:18.706Z,17.70
2023-05-22T00:47:23.701Z,17.70
2023-05-22T00:51:28.265Z,17.70
2023-05-22T00:55:32.567Z,17.60
2023-05-22T00:59:36.660Z,17.60
2023-05-22T01:03:44.568Z,17.60
2023-05-22T01:07:47.541Z,17.50
2023-05-22T01:12:12.128Z,17.50
2023-05-22T01:16:25.017Z,17.60
2023-05-22T01:20:32.091Z,17.60
2023-05-22T01:25:04.360Z,17.60
2023-05-22T01:29:23.131Z,17.60
2023-05-22T01:33:29.485Z,17.60
2023-05-22T01:37:33.194Z,17.70
2023-05-22T01:41:36.534Z,17.70
2023-05-22T01:45:39.872Z,17.70
2023-05-22T01:49:44.975Z,17.70
2023-05-22T01:53:55.213Z,17.60
2023-05-22T01:58:04.119Z,17.50
2023-05-22T02:02:09.714Z,17.40
2023-05-22T02:10:21.494Z,17.30
2023-05-22T02:14:24.750Z,17.30
2023-05-22T02:18:29.434Z,17.30
2023-05-22T02:22:33.843Z,17.30
2023-05-22T02:26:37.214Z,17.20
2023-05-22T02:30:40.491Z,17.20
2023-05-22T02:34:44.005Z,17.10
2023-05-22T02:38:48.181Z,17.00
2023-05-22T02:42:51.027Z,16.90
2023-05-22T02:46:54.250Z,16.90
2023-05-22T02:50:57.229Z,16.80
2023-05-22T02:55:01.461Z,16.70
2023-05-22T02:59:04.448Z,16.50
2023-05-22T03:03:08.252Z,16.50
2023-05-22T03:07:12.266Z,16.50
2023-05-22T03:11:16.653Z,16.50
2023-05-22T03:15:19.987Z,16.50
2023-05-22T03:19:24.173Z,16.50
2023-05-22T03:23:27.411Z,16.50
2023-05-22T03:27:31.925Z,16.50
2023-05-22T03:31:35.595Z,16.50
2023-05-22T03:35:44.490Z,16.50
2023-05-22T03:39:47.841Z,16.40
2023-05-22T03:44:03.115Z,16.40
2023-05-22T03:48:06.602Z,16.40
2023-05-22T03:52:11.149Z,16.40
2023-05-22T03:56:14.047Z,16.40
2023-05-22T04:00:19.676Z,16.40
2023-05-22T04:04:22.614Z,16.50
2023-05-22T04:08:26.963Z,16.40
2023-05-22T04:12:29.786Z,16.50
2023-05-22T04:16:34.073Z,16.50
2023-05-22T04:20:37.192Z,16.60
2023-05-22T04:24:40.638Z,16.50
2023-05-22T04:28:46.124Z,16.50
2023-05-22T04:32:50.379Z,16.60
2023-05-22T04:36:53.230Z,16.70
2023-05-22T04:40:56.083Z,16.70
2023-05-22T04:44:58.931Z,16.70
2023-05-22T04:49:03.253Z,16.80
2023-05-22T04:53:06.329Z,16.80
2023-05-22T04:57:09.618Z,16.90
2023-05-22T05:01:12.668Z,17.00
2023-05-22T05:05:16.914Z,17.10
2023-05-22T05:09:19.800Z,17.20
2023-05-22T05:13:22.673Z,17.30
2023-05-22T05:17:25.762Z,17.50
2023-05-22T05:21:31.429Z,17.70
2023-05-22T05:25:38.750Z,17.80
2023-05-22T05:29:42.477Z,18.00
2023-05-22T05:33:56.680Z,18.10
2023-05-22T05:38:08.190Z,18.30
2023-05-22T05:42:13.401Z,18.50
2023-05-22T05:46:16.640Z,18.70
2023-05-22T05:50:19.983Z,18.90
2023-05-22T05:54:26.322Z,19.10
2023-05-22T05:58:31.637Z,19.20
2023-05-22T06:02:49.667Z,19.30
2023-05-22T06:07:04.074Z,19.40
2023-05-22T06:11:29.781Z,19.60
2023-05-22T06:15:34.272Z,19.80
2023-05-22T06:19:37.461Z,20.00
2023-05-22T06:23:41.517Z,20.10
2023-05-22T06:27:45.834Z,20.20
2023-05-22T06:31:48.785Z,20.20
2023-05-22T06:35:55.433Z,20.30
2023-05-22T06:39:59.258Z,20.30
2023-05-22T06:44:17.462Z,20.30
2023-05-22T06:48:20.528Z,20.30
2023-05-22T06:52:43.726Z,20.30
2023-05-22T06:56:48.352Z,20.40
2023-05-22T07:00:55.311Z,20.50
2023-05-22T07:05:10.298Z,20.60
2023-05-22T07:09:24.512Z,20.60
2023-05-22T07:13:32.570Z,20.70
2023-05-22T07:18:01.950Z,20.80
2023-05-22T07:22:06.687Z,20.90
2023-05-22T07:26:12.603Z,20.90
2023-05-22T07:30:25.619Z,21.00
2023-05-22T07:34:34.249Z,21.00
2023-05-22T07:38:39.277Z,21.00
2023-05-22T07:42:42.269Z,21.10
2023-05-22T07:46:47.967Z,21.20
2023-05-22T07:50:56.503Z,21.30
2023-05-22T07:54:59.504Z,21.40
2023-05-22T07:59:03.794Z,21.60
2023-05-22T08:03:06.821Z,21.80
2023-05-22T08:11:49.733Z,22.30
2023-05-22T08:16:00.401Z,22.40
2023-05-22T08:20:06.872Z,22.70
2023-05-22T08:24:11.319Z,23.10
2023-05-22T08:28:14.209Z,23.70
2023-05-22T08:32:17.125Z,24.40
2023-05-22T08:36:20.234Z,24.90
2023-05-22T08:40:28.477Z,24.80
2023-05-22T08:44:31.410Z,24.70
2023-05-22T08:48:35.691Z,24.80
2023-05-22T08:52:48.033Z,25.00
2023-05-22T08:56:57.077Z,25.10
2023-05-22T09:01:00.972Z,25.40
2023-05-22T09:05:05.394Z,25.60
2023-05-22T09:09:08.317Z,25.80
2023-05-22T09:13:24.195Z,26.00
2023-05-22T09:17:27.652Z,25.70
2023-05-22T09:21:31.334Z,25.50
2023-05-22T09:25:34.311Z,25.50
2023-05-22T09:29:50.568Z,25.50
2023-05-22T09:33:56.079Z,25.40
2023-05-22T09:38:00.148Z,25.50
2023-05-22T09:42:03.018Z,25.70
2023-05-22T09:46:07.411Z,26.00
2023-05-22T09:50:11.010Z,26.30
2023-05-22T09:54:15.007Z,26.50
2023-05-22T09:58:20.736Z,26.90
2023-05-22T10:02:26.093Z,27.00
2023-05-22T10:06:29.431Z,26.90
2023-05-22T10:10:33.193Z,26.80
2023-05-22T10:14:37.019Z,26.50
2023-05-22T10:18:42.366Z,26.30
2023-05-22T10:22:45.836Z,26.00
2023-05-22T10:26:49.151Z,25.90
2023-05-22T10:30:59.483Z,25.90
2023-05-22T10:35:43.399Z,26.10
2023-05-22T10:39:57.261Z,26.20
2023-05-22T10:44:00.132Z,26.30
2023-05-22T10:48:04.691Z,26.40
2023-05-22T10:52:09.829Z,26.30
2023-05-22T10:56:13.838Z,26.50
2023-05-22T11:00:19.246Z,26.80
2023-05-22T11:04:26.680Z,27.00
2023-05-22T11:08:39.614Z,27.10
2023-05-22T11:12:42.519Z,27.20
2023-05-22T11:16:45.582Z,27.30
2023-05-22T11:20:48.688Z,27.40
2023-05-22T11:24:55.917Z,27.50
2023-05-22T11:29:02.397Z,27.50
2023-05-22T11:33:07.223Z,27.60
2023-05-22T11:37:11.322Z,27.50
2023-05-22T11:41:17.100Z,27.60
2023-05-22T11:45:20.217Z,27.70
2023-05-22T11:49:24.076Z,27.80
2023-05-22T11:53:27.047Z,27.90
2023-05-22T11:57:31.947Z,27.90
2023-05-22T12:01:36.246Z,27.90
2023-05-22T12:05:39.133Z,28.00
2023-05-22T12:09:43.212Z,28.20
2023-05-22T12:13:47.458Z,28.00
2023-05-22T12:17:50.345Z,28.20
2023-05-22T12:21:54.104Z,28.30
2023-05-22T12:26:01.416Z,28.40
2023-05-22T12:30:13.708Z,28.40
2023-05-22T12:34:18.797Z,28.30
2023-05-22T12:38:23.067Z,28.30
2023-05-22T12:42:26.239Z,28.30
2023-05-22T12:46:31.294Z,28.30
2023-05-22T12:50:34.206Z,28.50
2023-05-22T12:54:37.151Z,28.60
2023-05-22T12:58:39.898Z,28.60
2023-05-22T13:02:45.109Z,28.60
2023-05-22T13:07:01.533Z,28.70
2023-05-22T13:11:04.536Z,28.50
2023-05-22T13:15:08.486Z,28.50
2023-05-22T13:19:12.830Z,28.50
2023-05-22T13:23:15.767Z,28.50
2023-05-22T13:27:19.876Z,28.70
2023-05-22T13:31:22.705Z,28.90
2023-05-22T13:35:27.022Z,28.90
2023-05-22T13:39:29.844Z,28.70
2023-05-22T13:43:32.702Z,28.70
2023-05-22T13:47:35.898Z,28.90
2023-05-22T13:51:40.101Z,29.10
2023-05-22T13:55:42.982Z,29.60
2023-05-22T13:59:45.783Z,30.00
2023-05-22T14:03:48.677Z,29.90
2023-05-22T14:07:52.828Z,29.80
2023-05-22T14:11:57.750Z,29.80
2023-05-22T14:16:00.558Z,30.00
2023-05-22T14:20:04.143Z,30.20
2023-05-22T14:24:08.591Z,30.30
2023-05-22T14:28:11.510Z,30.20
2023-05-22T14:32:14.400Z,30.20
2023-05-22T14:36:17.874Z,29.90
2023-05-22T14:40:22.087Z,29.40
2023-05-22T14:44:25.003Z,28.90
2023-05-22T14:48:29.368Z,28.50
2023-05-22T14:52:32.241Z,28.10
2023-05-22T14:56:36.437Z,27.60
2023-05-22T15:00:39.260Z,27.30
2023-05-22T15:04:42.105Z,26.80
2023-05-22T15:08:44.884Z,26.50
2023-05-22T15:12:49.015Z,26.10
2023-05-22T15:16:51.833Z,25.80
2023-05-22T15:20:54.723Z,25.40
2023-05-22T15:25:07.822Z,25.20
2023-05-22T15:29:12.124Z,25.00
2023-05-22T15:33:15.805Z,24.90
2023-05-22T15:37:18.679Z,24.80
2023-05-22T15:41:21.776Z,24.50
2023-05-22T15:45:25.883Z,24.30
2023-05-22T15:49:31.044Z,24.10
2023-05-22T15:53:39.779Z,24.00
2023-05-22T15:57:42.772Z,23.80
2023-05-22T16:01:47.132Z,23.60
2023-05-22T16:05:50.807Z,23.30
2023-05-22T16:09:53.735Z,23.10
2023-05-22T16:13:56.539Z,23.00
2023-05-22T16:18:01.220Z,22.80
2023-05-22T16:22:04.713Z,22.70
2023-05-22T16:26:07.466Z,22.50
2023-05-22T16:30:11.376Z,22.40
2023-05-22T16:34:15.697Z,22.30
2023-05-22T16:38:18.755Z,22.10
2023-05-22T16:42:22.288Z,21.80
2023-05-22T16:46:25.186Z,21.60
2023-05-22T16:50:29.334Z,21.50
2023-05-22T16:54:32.122Z,21.30
2023-05-22T16:58:34.935Z,21.20
2023-05-22T17:02:38.337Z,20.90
2023-05-22T17:06:42.851Z,20.60
2023-05-22T17:10:45.774Z,20.40
2023-05-22T17:14:48.553Z,20.10
2023-05-22T17:18:52.904Z,19.90
2023-05-22T17:22:59.093Z,19.80
2023-05-22T17:27:03.378Z,19.90
2023-05-22T17:31:07.147Z,19.90
2023-05-22T17:35:10.075Z,19.80
2023-05-22T17:39:14.431Z,19.80
2023-05-22T17:43:19.133Z,19.80
2023-05-22T17:47:22.221Z,19.80
2023-05-22T17:51:25.473Z,19.80
2023-05-22T17:55:29.931Z,19.70
2023-05-22T17:59:33.769Z,19.70
2023-05-22T18:03:37.286Z,19.60
2023-05-22T18:07:40.615Z,19.60
2023-05-22T18:11:45.041Z,19.60
2023-05-22T18:15:49.239Z,19.50
2023-05-22T18:19:52.429Z,19.30
2023-05-22T18:23:56.450Z,19.20
2023-05-22T18:28:01.848Z,19.10
2023-05-22T18:32:05.258Z,19.20
2023-05-22T18:36:08.506Z,19.20
2023-05-22T18:40:12.698Z,19.30
2023-05-22T18:44:17.228Z,19.30
2023-05-22T18:48:20.871Z,19.20
2023-05-22T18:52:24.197Z,19.00
2023-05-22T18:56:27.245Z,19.20
2023-05-22T19:00:31.802Z,19.20
2023-05-22T19:04:34.905Z,19.10
2023-05-22T19:08:37.935Z,19.00
2023-05-22T19:12:41.035Z,18.80
2023-05-22T19:16:45.499Z,18.70
2023-05-22T19:20:48.764Z,18.60
2023-05-22T19:24:52.322Z,18.60
2023-05-22T19:28:59.402Z,18.60
2023-05-22T19:33:05.424Z,18.60
2023-05-22T19:37:10.834Z,18.50
2023-05-22T19:41:14.665Z,18.30
2023-05-22T19:45:20.910Z,18.20
2023-05-22T19:49:28.266Z,18.00
2023-05-22T19:53:32.686Z,18.00
2023-05-22T19:57:36.042Z,18.00
2023-05-22T20:01:39.284Z,17.90
2023-05-22T20:05:47.057Z,17.90
2023-05-22T20:09:50.494Z,17.70
2023-05-22T20:13:54.430Z,17.60
2023-05-22T20:18:04.166Z,17.40
2023-05-22T20:22:09.442Z,17.50
2023-05-22T20:26:16.398Z,17.50
2023-05-22T20:30:22.399Z,17.50
2023-05-22T20:34:44.858Z,17.50
2023-05-22T20:39:15.366Z,17.40
2023-05-22T20:44:09.488Z,17.50
2023-05-22T20:48:44.715Z,17.60
2023-05-22T20:53:13.155Z,17.50
2023-05-22T20:57:17.746Z,17.40
2023-05-22T21:01:20.683Z,17.40
2023-05-22T21:05:23.540Z,17.30
2023-05-22T21:09:26.309Z,17.40
2023-05-22T21:13:30.380Z,17.40
2023-05-22T21:17:33.719Z,17.40
2023-05-22T21:21:42.388Z,17.50
2023-05-22T21:25:45.880Z,17.50
2023-05-22T21:29:53.152Z,17.40
2023-05-22T21:33:56.558Z,17.30
2023-05-22T21:37:59.816Z,17.20
2023-05-22T21:42:04.236Z,17.20
2023-05-22T21:46:10.885Z,17.20
2023-05-22T21:50:13.940Z,17.10
2023-05-22T21:54:17.201Z,17.20
2023-05-22T21:58:20.489Z,17.10
2023-05-22T22:02:25.054Z,17.10
2023-05-22T22:06:28.255Z,17.10
2023-05-22T22:10:31.723Z,17.20
2023-05-22T22:14:34.932Z,17.20
2023-05-22T22:18:40.723Z,17.20
2023-05-22T22:22:45.063Z,17.20
2023-05-22T22:26:49.290Z,17.30
2023-05-22T22:30:55.358Z,17.30
2023-05-22T22:35:00.188Z,17.30
2023-05-22T22:39:04.634Z,17.30
2023-05-22T22:43:08.992Z,17.30
2023-05-22T22:47:14.905Z,17.20
2023-05-22T22:51:20.270Z,17.20
2023-05-22T22:55:24.729Z,17.20
2023-05-22T22:59:29.002Z,17.20
2023-05-22T23:03:32.428Z,17.20
2023-05-22T23:07:36.918Z,17.20
2023-05-22T23:11:42.129Z,17.20
2023-05-22T23:15:45.327Z,17.10
2023-05-22T23:19:48.277Z,17.10
2023-05-22T23:23:52.984Z,17.10
2023-05-22T23:27:55.935Z,17.00
2023-05-22T23:31:59.156Z,17.00
2023-05-22T23:36:02.123Z,16.90
2023-05-22T23:40:10.841Z,16.80
2023-05-22T23:44:14.173Z,16.70
2023-05-22T23:48:20.381Z,16.60
2023-05-22T23:56:32.264Z,16.40
